createdAt,value
2022-11-08T00:01:39.523Z,4.18
2022-11-08T00:04:15.597Z,3.28
2022-11-08T00:07:01.762Z,4.63
2022-11-08T00:09:48.202Z,4.88
2022-11-08T00:12:34.356Z,4.28
2022-11-08T00:15:05.526Z,3.28
2022-11-08T00:17:33.107Z,3.40
2022-11-08T00:20:00.507Z,4.00
2022-11-08T00:22:30.425Z,4.10
2022-11-08T00:24:58.198Z,4.18
2022-11-08T00:27:26.463Z,3.20
2022-11-08T00:29:56.093Z,3.85
2022-11-08T00:32:25.784Z,4.20
2022-11-08T00:34:54.191Z,3.40
2022-11-08T00:37:23.914Z,4.20
2022-11-08T00:39:51.494Z,3.70
2022-11-08T00:42:19.019Z,3.83
2022-11-08T00:44:46.320Z,4.07
2022-11-08T00:47:14.893Z,4.07
2022-11-08T00:49:42.129Z,3.70
2022-11-08T00:52:14.262Z,3.20
2022-11-08T00:54:44.503Z,3.63
2022-11-08T00:57:11.957Z,3.80
2022-11-08T00:59:41.575Z,3.95
2022-11-08T01:02:09.322Z,3.50
2022-11-08T01:04:42.693Z,3.42
2022-11-08T01:07:12.425Z,3.53
2022-11-08T01:09:40.078Z,4.40
2022-11-08T01:12:07.556Z,3.40
2022-11-08T01:14:37.188Z,3.78
2022-11-08T01:17:06.763Z,3.58
2022-11-08T01:19:33.982Z,3.40
2022-11-08T01:22:01.188Z,4.80
2022-11-08T01:24:28.364Z,3.35
2022-11-08T01:26:58.083Z,3.30
2022-11-08T01:29:31.118Z,2.55
2022-11-08T01:31:58.643Z,3.47
2022-11-08T01:34:32.660Z,3.50
2022-11-08T01:37:00.214Z,3.70
2022-11-08T01:39:33.110Z,3.53
2022-11-08T01:42:00.404Z,3.03
2022-11-08T01:44:30.193Z,3.17
2022-11-08T01:46:57.479Z,3.17
2022-11-08T01:49:28.596Z,3.50
2022-11-08T01:52:10.596Z,2.88
2022-11-08T01:55:02.282Z,3.28
2022-11-08T01:57:52.207Z,3.25
2022-11-08T02:00:22.625Z,2.90
2022-11-08T02:03:28.177Z,3.25
2022-11-08T02:05:59.259Z,3.30
2022-11-08T02:08:36.727Z,2.75
2022-11-08T02:11:07.314Z,3.38
2022-11-08T02:13:40.595Z,2.90
2022-11-08T02:16:15.411Z,2.92
2022-11-08T02:18:54.729Z,3.30
2022-11-08T02:21:46.384Z,3.30
2022-11-08T02:24:14.599Z,2.80
2022-11-08T02:26:43.884Z,3.20
2022-11-08T02:29:28.400Z,2.92
2022-11-08T02:31:56.807Z,2.55
2022-11-08T02:34:32.527Z,2.63
2022-11-08T02:37:01.546Z,3.10
2022-11-08T02:39:35.077Z,3.80
2022-11-08T02:42:03.014Z,2.42
2022-11-08T02:44:30.269Z,3.28
2022-11-08T02:46:57.525Z,2.90
2022-11-08T02:49:24.902Z,3.00
2022-11-08T02:51:53.812Z,3.08
2022-11-08T02:54:21.547Z,2.63
2022-11-08T02:56:49.139Z,2.55
2022-11-08T02:59:16.493Z,2.97
2022-11-08T03:01:46.324Z,2.40
2022-11-08T03:04:13.796Z,3.00
2022-11-08T03:06:43.644Z,3.20
2022-11-08T03:09:14.185Z,3.28
2022-11-08T03:11:41.555Z,3.22
2022-11-08T03:14:08.755Z,3.78
2022-11-08T03:16:37.763Z,3.28
2022-11-08T03:21:47.371Z,3.33
2022-11-08T03:24:15.744Z,3.10
2022-11-08T03:26:42.818Z,2.97
2022-11-08T03:29:10.112Z,2.70
2022-11-08T03:31:37.383Z,3.85
2022-11-08T03:34:04.811Z,2.83
2022-11-08T03:36:31.970Z,2.83
2022-11-08T03:38:59.150Z,3.03
2022-11-08T03:41:26.723Z,2.83
2022-11-08T03:43:53.922Z,2.85
2022-11-08T03:46:21.136Z,2.47
2022-11-08T03:48:50.568Z,2.78
2022-11-08T03:51:17.912Z,2.88
2022-11-08T03:53:45.064Z,3.33
2022-11-08T03:56:14.064Z,3.30
2022-11-08T03:58:41.244Z,3.28
2022-11-08T04:01:09.123Z,3.95
2022-11-08T04:03:36.308Z,3.00
2022-11-08T04:06:03.760Z,3.22
2022-11-08T04:08:31.303Z,2.63
2022-11-08T04:11:21.130Z,3.20
2022-11-08T04:14:07.291Z,3.03
2022-11-08T04:16:34.477Z,2.92
2022-11-08T04:22:07.226Z,3.08
2022-11-08T04:24:34.596Z,3.47
2022-11-08T04:27:04.357Z,2.92
2022-11-08T04:29:35.358Z,3.08
2022-11-08T04:32:02.484Z,2.63
2022-11-08T04:34:33.181Z,2.72
2022-11-08T04:37:00.525Z,2.80
2022-11-08T04:39:30.564Z,3.30
2022-11-08T04:42:02.439Z,2.47
2022-11-08T04:44:29.768Z,2.88
2022-11-08T04:46:57.040Z,2.80
2022-11-08T04:49:24.521Z,2.35
2022-11-08T04:51:54.187Z,3.03
2022-11-08T04:54:21.560Z,3.00
2022-11-08T04:56:48.960Z,2.72
2022-11-08T04:59:16.110Z,3.17
2022-11-08T05:01:43.338Z,3.08
2022-11-08T05:04:10.809Z,3.08
2022-11-08T05:06:40.933Z,3.10
2022-11-08T05:09:12.016Z,2.70
2022-11-08T05:11:40.969Z,2.92
2022-11-08T05:14:08.170Z,3.40
2022-11-08T05:16:35.722Z,2.83
2022-11-08T05:19:03.504Z,3.40
2022-11-08T05:21:54.117Z,2.92
2022-11-08T05:24:23.135Z,3.83
2022-11-08T05:26:50.829Z,3.22
2022-11-08T05:29:18.332Z,2.95
2022-11-08T05:31:45.470Z,2.90
2022-11-08T05:34:12.949Z,3.58
2022-11-08T05:36:42.721Z,2.75
2022-11-08T05:39:11.699Z,2.30
2022-11-08T05:41:39.009Z,3.15
2022-11-08T05:44:08.193Z,3.63
2022-11-08T05:46:35.534Z,2.75
2022-11-08T05:49:02.987Z,3.92
2022-11-08T05:51:33.947Z,2.40
2022-11-08T05:54:01.194Z,2.50
2022-11-08T05:56:30.829Z,2.65
2022-11-08T05:58:59.304Z,2.53
2022-11-08T06:01:26.723Z,3.53
2022-11-08T06:03:54.224Z,3.40
2022-11-08T06:06:25.650Z,3.67
2022-11-08T06:08:53.323Z,3.00
2022-11-08T06:11:29.896Z,2.65
2022-11-08T06:13:58.437Z,2.70
2022-11-08T06:16:26.318Z,3.00
2022-11-08T06:18:56.595Z,3.13
2022-11-08T06:21:24.078Z,2.47
2022-11-08T06:23:55.153Z,2.50
2022-11-08T06:26:24.834Z,2.88
2022-11-08T06:28:52.299Z,2.33
2022-11-08T06:31:19.449Z,2.90
2022-11-08T06:33:46.805Z,2.65
2022-11-08T06:36:14.250Z,2.38
2022-11-08T06:38:43.838Z,2.53
2022-11-08T06:41:17.707Z,2.67
2022-11-08T06:43:44.880Z,3.00
2022-11-08T06:46:12.295Z,2.63
2022-11-08T06:48:40.060Z,2.53
2022-11-08T06:51:14.759Z,2.60
2022-11-08T06:53:41.864Z,2.42
2022-11-08T06:56:09.923Z,2.15
2022-11-08T06:58:37.692Z,2.25
2022-11-08T07:01:07.258Z,2.17
2022-11-08T07:03:35.092Z,2.65
2022-11-08T07:06:05.888Z,1.85
2022-11-08T07:08:34.367Z,1.83
2022-11-08T07:11:04.815Z,2.10
2022-11-08T07:13:33.273Z,2.40
2022-11-08T07:16:01.174Z,2.30
2022-11-08T07:18:28.990Z,2.13
2022-11-08T07:21:00.570Z,2.22
2022-11-08T07:23:27.931Z,2.20
2022-11-08T07:25:55.494Z,1.85
2022-11-08T07:28:22.923Z,1.95
2022-11-08T07:30:50.086Z,2.58
2022-11-08T07:33:18.093Z,2.10
2022-11-08T07:35:47.689Z,1.90
2022-11-08T07:38:15.026Z,2.35
2022-11-08T07:40:42.460Z,2.72
2022-11-08T07:43:12.600Z,2.20
2022-11-08T07:45:57.871Z,2.42
2022-11-08T07:48:29.946Z,1.90
2022-11-08T07:50:57.046Z,2.17
2022-11-08T07:53:28.433Z,2.53
2022-11-08T07:55:55.812Z,2.50
2022-11-08T07:58:23.282Z,2.40
2022-11-08T08:00:56.003Z,2.25
2022-11-08T08:03:25.802Z,2.28
2022-11-08T08:06:00.492Z,2.28
2022-11-08T08:08:31.282Z,2.58
2022-11-08T08:11:01.541Z,2.75
2022-11-08T08:13:33.341Z,2.67
2022-11-08T08:16:03.515Z,3.13
2022-11-08T08:18:34.111Z,2.20
2022-11-08T08:21:10.804Z,2.63
2022-11-08T08:23:39.149Z,1.92
2022-11-08T08:26:06.654Z,2.30
2022-11-08T08:28:35.926Z,2.30
2022-11-08T08:31:07.140Z,2.03
2022-11-08T08:33:37.688Z,2.40
2022-11-08T08:36:05.573Z,2.13
2022-11-08T08:38:41.469Z,1.70
2022-11-08T08:41:11.392Z,2.10
2022-11-08T08:43:41.962Z,1.75
2022-11-08T08:46:09.469Z,1.73
2022-11-08T08:48:38.540Z,2.38
2022-11-08T08:51:06.161Z,2.63
2022-11-08T08:53:33.394Z,3.17
2022-11-08T08:56:02.682Z,2.17
2022-11-08T08:58:31.191Z,2.20
2022-11-08T09:03:50.236Z,1.80
2022-11-08T09:06:17.430Z,2.30
2022-11-08T09:08:44.676Z,2.08
2022-11-08T09:11:11.800Z,1.80
2022-11-08T09:13:39.106Z,2.05
2022-11-08T09:16:08.080Z,1.92
2022-11-08T09:18:35.374Z,2.17
2022-11-08T09:21:04.377Z,2.40
2022-11-08T09:23:34.964Z,1.92
2022-11-08T09:26:05.250Z,2.38
2022-11-08T09:28:38.630Z,2.35
2022-11-08T09:31:09.257Z,2.13
2022-11-08T09:33:40.229Z,1.95
2022-11-08T09:36:13.909Z,2.10
2022-11-08T09:38:42.122Z,2.58
2022-11-08T09:41:13.220Z,2.20
2022-11-08T09:44:14.295Z,1.77
2022-11-08T09:46:49.877Z,2.30
2022-11-08T09:49:24.488Z,2.30
2022-11-08T09:51:51.777Z,1.92
2022-11-08T09:54:29.693Z,2.15
2022-11-08T09:56:57.412Z,2.05
2022-11-08T09:59:34.638Z,2.00
2022-11-08T10:02:02.662Z,2.15
2022-11-08T10:04:33.221Z,2.70
2022-11-08T10:07:18.894Z,2.05
2022-11-08T10:10:14.432Z,2.28
2022-11-08T10:13:03.437Z,1.73
2022-11-08T10:15:33.525Z,1.88
2022-11-08T10:18:27.717Z,2.20
2022-11-08T10:21:23.074Z,2.00
2022-11-08T10:24:00.760Z,1.50
2022-11-08T10:26:50.865Z,2.05
2022-11-08T10:29:25.451Z,2.03
2022-11-08T10:32:17.452Z,1.75
2022-11-08T10:35:07.179Z,2.15
2022-11-08T10:37:34.477Z,1.85
2022-11-08T10:40:19.712Z,1.80
2022-11-08T10:43:17.641Z,1.75
2022-11-08T10:45:45.067Z,2.10
2022-11-08T10:48:15.140Z,2.03
2022-11-08T10:50:50.880Z,1.63
2022-11-08T10:53:26.048Z,1.75
2022-11-08T10:56:00.893Z,2.17
2022-11-08T10:58:41.856Z,1.58
2022-11-08T11:01:21.088Z,1.73
2022-11-08T11:03:52.950Z,2.05
2022-11-08T11:06:30.771Z,2.67
2022-11-08T11:09:00.781Z,1.88
2022-11-08T11:14:08.144Z,1.98
2022-11-08T11:16:50.351Z,1.88
2022-11-08T11:19:19.776Z,2.33
2022-11-08T11:25:03.018Z,1.80
2022-11-08T11:27:37.366Z,1.85
2022-11-08T11:30:25.717Z,2.17
2022-11-08T11:33:23.383Z,1.85
2022-11-08T11:36:00.222Z,2.60
2022-11-08T11:39:05.004Z,2.08
2022-11-08T11:41:48.185Z,1.70
2022-11-08T11:44:38.348Z,2.00
2022-11-08T11:47:20.838Z,2.33
2022-11-08T11:49:48.840Z,1.85
2022-11-08T11:52:18.678Z,2.00
2022-11-08T11:54:49.496Z,2.50
2022-11-08T11:57:43.703Z,1.92
2022-11-08T12:00:13.125Z,1.83
2022-11-08T12:03:08.022Z,2.20
2022-11-08T12:05:39.213Z,2.00
2022-11-08T12:08:31.638Z,1.90
2022-11-08T12:11:21.189Z,1.97
2022-11-08T12:14:09.996Z,1.80
2022-11-08T12:17:01.765Z,2.03
2022-11-08T12:19:41.455Z,1.80
2022-11-08T12:22:39.901Z,1.70
2022-11-08T12:25:41.268Z,1.80
2022-11-08T12:28:25.896Z,1.88
2022-11-08T12:31:16.625Z,2.03
2022-11-08T12:34:20.516Z,2.03
2022-11-08T12:37:13.977Z,1.83
2022-11-08T12:39:49.449Z,1.95
2022-11-08T12:42:42.479Z,1.70
2022-11-08T12:45:23.296Z,1.85
2022-11-08T12:48:18.321Z,2.17
2022-11-08T12:51:17.826Z,1.85
2022-11-08T12:54:03.530Z,1.77
2022-11-08T12:56:41.152Z,1.80
2022-11-08T12:59:31.652Z,1.60
2022-11-08T13:02:33.470Z,2.00
2022-11-08T13:05:20.712Z,1.77
2022-11-08T13:16:16.246Z,1.75
2022-11-08T13:18:59.470Z,1.88
2022-11-08T13:21:39.582Z,1.95
2022-11-08T13:24:38.051Z,1.95
2022-11-08T13:27:31.028Z,1.95
2022-11-08T13:30:15.918Z,2.20
2022-11-08T13:33:20.532Z,1.73
2022-11-08T13:37:20.836Z,2.03
2022-11-08T13:39:17.417Z,2.30
2022-11-08T13:45:49.631Z,1.98
2022-11-08T13:49:41.791Z,2.58
2022-11-08T13:51:42.463Z,2.30
2022-11-08T13:58:39.237Z,1.75
2022-11-08T14:01:38.427Z,2.22
2022-11-08T14:05:06.339Z,2.35
2022-11-08T14:07:54.895Z,1.70
2022-11-08T14:10:39.214Z,2.80
2022-11-08T14:13:28.941Z,1.80
2022-11-08T14:16:07.425Z,2.33
2022-11-08T14:18:45.910Z,2.10
2022-11-08T14:21:18.812Z,2.20
2022-11-08T14:23:51.472Z,2.05
2022-11-08T14:26:24.271Z,2.25
2022-11-08T14:31:27.916Z,2.00
2022-11-08T14:33:58.737Z,2.75
2022-11-08T14:36:34.283Z,2.38
2022-11-08T14:39:20.099Z,2.17
2022-11-08T14:41:55.868Z,2.25
2022-11-08T14:44:24.706Z,1.80
2022-11-08T14:46:57.917Z,2.08
2022-11-08T14:49:39.321Z,2.50
2022-11-08T14:52:27.342Z,2.15
2022-11-08T14:55:03.296Z,1.90
2022-11-08T14:57:37.425Z,3.10
2022-11-08T15:00:19.505Z,2.47
2022-11-08T15:02:56.366Z,2.60
2022-11-08T15:05:41.035Z,1.88
2022-11-08T15:08:23.798Z,3.13
2022-11-08T15:11:01.341Z,2.35
2022-11-08T15:13:31.127Z,2.60
2022-11-08T15:16:42.780Z,2.05
2022-11-08T15:19:34.896Z,1.73
2022-11-08T15:22:33.124Z,2.15
2022-11-08T15:25:35.279Z,2.20
2022-11-08T15:28:27.340Z,2.35
2022-11-08T15:30:58.446Z,2.90
2022-11-08T15:33:32.975Z,2.88
2022-11-08T15:36:51.200Z,1.90
2022-11-08T15:39:43.474Z,2.58
2022-11-08T15:42:18.803Z,2.30
2022-11-08T15:45:00.220Z,2.13
2022-11-08T15:48:24.811Z,2.63
2022-11-08T15:51:12.352Z,1.90
2022-11-08T15:53:44.114Z,2.80
2022-11-08T16:00:02.313Z,2.03
2022-11-08T16:02:50.331Z,2.25
2022-11-08T16:05:51.901Z,2.10
2022-11-08T16:12:09.262Z,1.80
2022-11-08T16:15:00.741Z,2.38
2022-11-08T16:17:28.138Z,1.88
2022-11-08T16:19:57.850Z,2.10
2022-11-08T16:22:28.037Z,1.98
2022-11-08T16:24:55.267Z,2.50
2022-11-08T16:27:22.652Z,2.22
2022-11-08T16:29:50.018Z,2.70
2022-11-08T16:32:17.324Z,2.17
2022-11-08T16:34:44.694Z,2.95
2022-11-08T16:37:18.589Z,2.50
2022-11-08T16:39:47.387Z,2.65
2022-11-08T16:42:14.587Z,2.30
2022-11-08T16:44:41.880Z,2.05
2022-11-08T16:47:17.125Z,1.90
2022-11-08T16:49:51.373Z,2.65
2022-11-08T16:52:22.277Z,2.20
2022-11-08T16:54:49.427Z,2.85
2022-11-08T17:00:04.789Z,2.80
2022-11-08T17:02:34.239Z,2.38
2022-11-08T17:05:01.775Z,2.38
2022-11-08T17:07:29.736Z,2.75
2022-11-08T17:09:57.075Z,2.80
2022-11-08T17:12:34.770Z,2.63
2022-11-08T17:16:36.785Z,2.47
2022-11-08T17:18:33.068Z,2.97
2022-11-08T17:21:45.409Z,2.92
2022-11-08T17:24:25.919Z,2.45
2022-11-08T17:29:23.586Z,2.40
2022-11-08T17:31:54.042Z,2.80
2022-11-08T17:34:21.405Z,3.05
2022-11-08T17:36:48.631Z,2.30
2022-11-08T17:39:15.806Z,3.15
2022-11-08T17:41:43.160Z,2.97
2022-11-08T17:44:13.181Z,2.88
2022-11-08T17:46:54.245Z,2.70
2022-11-08T17:49:33.770Z,3.05
2022-11-08T17:52:31.962Z,2.90
2022-11-08T17:58:07.103Z,2.70
2022-11-08T18:00:34.562Z,2.60
2022-11-08T18:03:24.545Z,2.83
2022-11-08T18:06:03.853Z,2.95
2022-11-08T18:08:43.685Z,3.60
2022-11-08T18:11:11.328Z,2.55
2022-11-08T18:13:38.642Z,3.05
2022-11-08T18:16:11.844Z,2.72
2022-11-08T18:18:39.780Z,2.72
2022-11-08T18:21:09.432Z,3.33
2022-11-08T18:23:57.980Z,2.70
2022-11-08T18:26:45.443Z,2.30
2022-11-08T18:29:12.464Z,3.38
2022-11-08T18:31:39.673Z,2.63
2022-11-08T18:34:10.821Z,3.25
2022-11-08T18:36:38.191Z,2.97
2022-11-08T18:39:05.756Z,3.50
2022-11-08T18:41:35.657Z,2.33
2022-11-08T18:44:05.957Z,2.75
2022-11-08T18:46:41.776Z,2.60
2022-11-08T18:49:11.251Z,2.92
2022-11-08T18:51:46.408Z,2.75
2022-11-08T18:54:17.564Z,2.85
2022-11-08T18:56:44.841Z,3.00
2022-11-08T18:59:11.989Z,2.38
2022-11-08T19:01:39.200Z,3.13
2022-11-08T19:04:06.473Z,2.60
2022-11-08T19:06:36.093Z,2.75
2022-11-08T19:09:03.858Z,2.08
2022-11-08T19:11:31.108Z,2.47
2022-11-08T19:13:59.012Z,3.05
2022-11-08T19:16:26.217Z,2.75
2022-11-08T19:18:54.734Z,2.20
2022-11-08T19:21:24.045Z,2.30
2022-11-08T19:23:54.620Z,3.67
2022-11-08T19:26:25.517Z,2.35
2022-11-08T19:29:03.327Z,2.53
2022-11-08T19:31:35.375Z,3.08
2022-11-08T19:34:03.502Z,3.08
2022-11-08T19:36:33.424Z,2.80
2022-11-08T19:39:05.225Z,2.25
2022-11-08T19:41:33.649Z,2.75
2022-11-08T19:44:07.019Z,3.13
2022-11-08T19:46:34.576Z,3.45
2022-11-08T19:49:03.487Z,3.05
2022-11-08T19:51:33.588Z,2.20
2022-11-08T19:54:05.166Z,3.28
2022-11-08T19:59:26.064Z,3.50
2022-11-08T20:01:53.344Z,2.40
2022-11-08T20:04:23.285Z,2.67
2022-11-08T20:06:53.462Z,2.65
2022-11-08T20:09:24.641Z,2.33
2022-11-08T20:11:56.682Z,2.35
2022-11-08T20:14:26.236Z,3.58
2022-11-08T20:16:55.327Z,3.00
2022-11-08T20:19:22.469Z,3.50
2022-11-08T20:21:50.024Z,3.28
2022-11-08T20:24:17.406Z,2.80
2022-11-08T20:26:45.142Z,2.47
2022-11-08T20:29:12.483Z,2.20
2022-11-08T20:31:42.641Z,1.77
2022-11-08T20:34:14.157Z,1.75
2022-11-08T20:36:44.007Z,2.00
2022-11-08T20:39:16.044Z,1.90
2022-11-08T20:41:53.701Z,1.65
2022-11-08T20:44:22.181Z,1.10
2022-11-08T20:46:50.424Z,1.50
2022-11-08T20:49:22.129Z,1.65
2022-11-08T20:51:51.858Z,2.13
2022-11-08T20:54:21.399Z,0.90
2022-11-08T20:56:51.933Z,0.98
2022-11-08T20:59:21.685Z,1.17
2022-11-08T21:01:50.118Z,0.80
2022-11-08T21:04:17.497Z,0.85
2022-11-08T21:07:59.609Z,0.63
2022-11-08T21:09:48.526Z,0.63
2022-11-08T21:12:20.438Z,0.57
2022-11-08T21:14:51.212Z,1.00
2022-11-08T21:17:22.612Z,0.77
2022-11-08T21:19:51.400Z,0.70
2022-11-08T21:22:21.693Z,1.00
2022-11-08T21:24:49.728Z,0.60
2022-11-08T21:27:28.504Z,0.80
2022-11-08T21:30:00.271Z,1.40
2022-11-08T21:32:28.127Z,0.88
2022-11-08T21:34:59.778Z,0.90
2022-11-08T21:37:27.658Z,0.80
2022-11-08T21:39:55.154Z,1.17
2022-11-08T21:42:22.483Z,0.73
2022-11-08T21:44:49.845Z,1.10
2022-11-08T21:47:21.650Z,0.93
2022-11-08T21:49:48.931Z,1.20
2022-11-08T21:52:16.174Z,1.10
2022-11-08T21:54:43.600Z,1.67
2022-11-08T21:57:13.764Z,1.17
2022-11-08T21:59:41.146Z,1.40
2022-11-08T22:02:10.195Z,1.38
2022-11-08T22:04:37.477Z,1.65
2022-11-08T22:07:04.960Z,1.42
2022-11-08T22:09:34.741Z,1.35
2022-11-08T22:12:03.195Z,1.50
2022-11-08T22:14:31.395Z,1.80
2022-11-08T22:16:58.908Z,1.90
2022-11-08T22:19:26.050Z,1.10
2022-11-08T22:21:53.539Z,1.40
2022-11-08T22:24:20.875Z,1.15
2022-11-08T22:26:51.648Z,1.30
2022-11-08T22:29:19.327Z,1.38
2022-11-08T22:31:47.372Z,0.82
2022-11-08T22:34:15.453Z,1.55
2022-11-08T22:36:46.044Z,1.00
2022-11-08T22:39:18.666Z,1.50
2022-11-08T22:41:50.022Z,0.70
2022-11-08T22:44:18.139Z,1.00
2022-11-08T22:46:58.970Z,0.60
2022-11-08T22:49:30.721Z,0.88
2022-11-08T22:51:59.205Z,1.25
2022-11-08T22:54:27.367Z,0.93
2022-11-08T22:57:00.135Z,1.10
2022-11-08T22:59:27.263Z,0.73
2022-11-08T23:01:57.739Z,0.80
2022-11-08T23:04:25.246Z,1.55
2022-11-08T23:06:52.766Z,0.85
2022-11-08T23:09:20.973Z,0.85
2022-11-08T23:12:06.977Z,0.77
2022-11-08T23:14:53.958Z,1.38
2022-11-08T23:17:23.998Z,1.10
2022-11-08T23:23:04.972Z,0.82
2022-11-08T23:25:32.250Z,1.00
2022-11-08T23:28:20.552Z,0.93
2022-11-08T23:31:06.400Z,1.08
2022-11-08T23:33:33.677Z,1.80
2022-11-08T23:36:12.718Z,1.27
2022-11-08T23:38:45.899Z,1.23
2022-11-08T23:41:31.888Z,1.15
2022-11-08T23:44:17.836Z,1.30
2022-11-08T23:46:45.107Z,1.52
2022-11-08T23:49:12.367Z,1.20
2022-11-08T23:51:43.728Z,1.27
2022-11-08T23:54:11.204Z,1.80
2022-11-08T23:56:39.228Z,2.30
2022-11-08T23:59:07.238Z,1.30
